AirNav   Air Wisconsin Up To $57,000 Bonus
 
 693 users online  

NH84 Northwood Airport
Northwood, New Hampshire, USA

GOING TO NORTHWOOD?


FAA INFORMATION EFFECTIVE 07 NOVEMBER 2019

Location

FAA Identifier: NH84
Lat/Long: 43-12-27.3200N 071-13-16.1600W
43-12.455333N 071-13.269333W
43.2075889,-71.2211556
(estimated)
Elevation: 640 ft. / 195 m (estimated)
Variation: 16W (1995)
From city: 1 mile SE of NORTHWOOD, NH
Time zone: UTC -5 (UTC -4 during Daylight Saving Time)
Zip code: 03261

Airport Operations

Airport use: Private use. Permission required prior to landing
Activation date: 03/2000
Control tower: no
ARTCC: BOSTON CENTER
FSS: BANGOR FLIGHT SERVICE STATION
Attendance: UNATNDD
Wind indicator: yes
Segmented circle: no

Airport Communications

WX ASOS at CON (12 nm W): 132.325 (603-224-6558)
WX ASOS at DAW (14 nm E): 135.275 (603-332-7814)
WX ASOS at MHT (19 nm SW): 119.55 (603-621-1766)

Nearby radio navigation aids

VOR radial/distance  VOR name  Freq  Var
CONr108/15.5CONCORD VOR/DME112.9015W
PSMr309/18.6PEASE VOR/DME116.5016W
MHTr033/21.4MANCHESTER VOR/DME114.4015W
LWMr004/28.6LAWRENCE VOR/DME112.5015W
ENEr261/29.6KENNEBUNK VOR/DME117.1017W

 
NDB name  Hdg/Dist  Freq  Var  ID
EPSOM078/11.421616WCO -.-. ---
ROLLINS283/17.226016WESG . ... --.

Airport Services

Runway Information

Runway 12/30

Dimensions: 2300 x 75 ft. / 701 x 23 m
Surface: turf
RUNWAY 12  RUNWAY 30
Traffic pattern: leftleft
Obstructions: 50 ft. tree, 150 ft. from runway50 ft. trees, 150 ft. from runway

Airport Ownership and Management from official FAA records

Ownership: Privately-owned
Owner: CHARLES THERRIAULT, JR
266 HARMONY RD
NORTHWOOD, NH 03261
Phone 603-942-7077
Manager: CHARLES THERRIAULT, JR
266 HARMONY RD
NORTHWOOD, NH 03261
Phone 603-942-7077

Airport Operational Statistics

Aircraft based on the field: 1
Single engine airplanes: 1
    

Additional Remarks

FOR CD CTC BOSTON APCH AT 603-594-5551.

Instrument Procedures

There are no published instrument procedures at NH84.

Some nearby airports with instrument procedures:

KCON - Concord Municipal Airport (12 nm W)
KDAW - Skyhaven Airport (14 nm E)
KMHT - Manchester Airport (19 nm SW)
KPSM - Portsmouth International Airport at Pease (19 nm SE)
3B4 - Littlebrook Air Park (20 nm E)
 
Loc | Ops | Rwys | IFR | FBO | Links
Com | Nav | Svcs | Stats | Notes
Area around NH84 (Northwood Airport)
 
Road maps at: MapQuest Bing Google
 
Aerial photo
No photo
 
Sectional chart

 
Airport distance calculator
Flying to Northwood Airport? Find the distance to fly.

From to NH84

Sunrise and sunset
Times for 21-Nov-2019
 Local
(UTC-5)
 Zulu
(UTC)
Morning civil twilight06:1511:15
Sunrise06:4611:46
Sunset16:1521:15
Evening civil twilight16:4621:46

Current date and time
Zulu (UTC)  22-Nov-2019 04:49:31
Local (UTC-5)  21-Nov-2019 23:49:31
 
METAR
KCON 
12nm W 
220351Z AUTO 00000KT 10SM CLR M01/M02 A2999 RMK AO2 SLP158 T10111022
KDAW 
14nm E 
220351Z AUTO 00000KT 10SM CLR M01/M02 A2998 RMK AO2 SLP152 T10061022
KMHT 
19nm SW 
220353Z 00000KT 10SM OVC170 01/M01 A2998 RMK AO2 SLP169 T00111011
KPSM 
20nm SE 
220356Z 00000KT 10SM FEW150 SCT180 OVC250 00/M01 A2998 RMK AO2A SLP156 T00001009
KLCI 
23nm N 
220356Z AUTO 00000KT 10SM CLR M01/M02 A2998 RMK AO2 SLP156 T10111017 FZRANO
TAF
KCON 
12nm W 
211732Z 2118/2218 31005KT P6SM SKC FM220500 VRB03KT P6SM VCSH OVC060 WS020/21035KT FM221500 25008KT P6SM BKN035 WS020/23035KT
KMHT 
19nm SW 
211732Z 2118/2218 31005KT P6SM SKC FM220500 VRB03KT P6SM OVC060 WS020/21035KT FM221500 25008KT P6SM BKN035 WS020/23035KT
KPSM 
20nm SE 
211732Z 2118/2218 26007KT P6SM SKC FM220500 20003KT P6SM VCSH OVC060 WS020/21035KT FM221500 24010KT P6SM BKN040 WS020/23035KT
NOTAMs
Click for the latest NOTAMs
NOTAMs are issued by the DoD/FAA and will open in a separate window not controlled by AirNav.

 

 
 

Would you like to see your business listed on this page?

 If your business provides an interesting product or service to pilots, flight crews, aircraft, or users of the Northwood Airport, you should consider listing it here.  To start the listing process, click on the button below
 
Add a business
 

Other Pages about Northwood Airport

Update a link
 
Copyright © AirNav, LLC. All rights reserved. Privacy Policy  Contact